Time;durP1;ratioP1;P1;durP2;ratioP2;P2;SDS_P1;SDS_P2;PMS_P1;PMS_P2;Temp;Humidity;BMP_temperature;BMP_pressure;BME280_temperature;BME280_humidity;BME280_pressure;Samples;Min_cycle;Max_cycle;Signal;HPM_P1;HPM_P2
2022/11/15 00:01:07;;;;;;;6.57;5.60;;;15.10;64.40;;;;;;5031394;28;20494;-71
2022/11/15 00:03:34;;;;;;;6.88;5.82;;;15.10;64.40;;;;;;5031735;28;20063;-71
2022/11/15 00:06:02;;;;;;;8.40;7.00;;;15.00;64.30;;;;;;5033033;28;20124;-71
2022/11/15 00:08:31;;;;;;;7.55;5.53;;;15.00;64.30;;;;;;5031403;28;20068;-71
2022/11/15 00:10:58;;;;;;;7.38;5.63;;;15.10;64.40;;;;;;5031552;28;20148;-71
2022/11/15 00:13:25;;;;;;;5.82;5.00;;;15.00;64.30;;;;;;5031793;28;20135;-71
2022/11/15 00:15:51;;;;;;;7.72;6.05;;;15.00;64.30;;;;;;5031518;28;20053;-71
2022/11/15 00:18:18;;;;;;;8.15;5.70;;;15.00;64.30;;;;;;5033075;28;20540;-71
2022/11/15 00:20:45;;;;;;;7.15;5.63;;;15.00;64.30;;;;;;5030987;28;20064;-71
2022/11/15 00:23:12;;;;;;;7.05;5.35;;;15.00;64.30;;;;;;5031490;28;20063;-71
2022/11/15 00:25:40;;;;;;;7.07;5.70;;;15.00;64.30;;;;;;5031778;28;20383;-71
2022/11/15 00:28:06;;;;;;;7.25;5.80;;;15.00;64.30;;;;;;5031600;28;20055;-71
2022/11/15 00:30:34;;;;;;;6.88;5.70;;;15.00;64.40;;;;;;5031250;28;20055;-71
2022/11/15 00:33:02;;;;;;;7.28;5.75;;;14.90;64.30;;;;;;5032206;28;20049;-71
2022/11/15 00:35:29;;;;;;;7.03;5.85;;;14.90;64.30;;;;;;5032551;28;20055;-71
2022/11/15 00:37:56;;;;;;;7.32;5.57;;;14.90;64.30;;;;;;5032671;28;20084;-71
2022/11/15 00:40:22;;;;;;;6.22;5.57;;;14.90;64.30;;;;;;5030565;28;20054;-71
2022/11/15 00:42:50;;;;;;;6.43;5.28;;;14.90;64.30;;;;;;5032308;28;20053;-71
2022/11/15 00:45:17;;;;;;;7.38;5.88;;;14.90;64.30;;;;;;5031213;28;20061;-71
2022/11/15 00:47:45;;;;;;;6.65;5.53;;;14.90;64.30;;;;;;5032454;28;20045;-71
2022/11/15 00:50:11;;;;;;;6.82;5.70;;;14.80;64.30;;;;;;5030780;28;20080;-71
2022/11/15 00:52:38;;;;;;;6.90;5.50;;;14.80;64.30;;;;;;5032353;28;20056;-71
2022/11/15 00:55:06;;;;;;;6.47;5.38;;;14.80;64.30;;;;;;5031203;28;20069;-71
2022/11/15 00:57:33;;;;;;;6.63;5.45;;;14.80;64.30;;;;;;5031227;28;20136;-71
2022/11/15 01:00:01;;;;;;;7.55;5.78;;;14.80;64.30;;;;;;5031462;28;20046;-71
2022/11/15 01:02:28;;;;;;;6.85;5.63;;;14.70;64.30;;;;;;5030825;28;20057;-71
2022/11/15 01:04:55;;;;;;;7.80;6.10;;;14.70;64.30;;;;;;5027628;28;20045;-71
2022/11/15 01:07:21;;;;;;;6.38;5.15;;;14.80;64.40;;;;;;5019446;28;20140;-71
2022/11/15 01:09:48;;;;;;;5.82;5.20;;;14.70;64.40;;;;;;5017687;28;20420;-71
2022/11/15 01:12:15;;;;;;;7.25;5.78;;;14.70;64.40;;;;;;5011386;28;20049;-71
2022/11/15 01:14:41;;;;;;;7.40;5.95;;;14.70;64.40;;;;;;5010990;28;20064;-71
2022/11/15 01:17:09;;;;;;;8.57;5.63;;;14.70;64.30;;;;;;5012271;28;20422;-71
2022/11/15 01:19:36;;;;;;;6.60;5.22;;;14.70;64.40;;;;;;5012117;28;20046;-71
2022/11/15 01:22:03;;;;;;;7.72;5.85;;;14.60;64.40;;;;;;5011415;28;20068;-71
2022/11/15 01:24:29;;;;;;;6.57;5.28;;;14.70;64.40;;;;;;5010446;28;20049;-71
2022/11/15 01:26:56;;;;;;;5.90;4.90;;;14.70;64.40;;;;;;5011424;28;20057;-71
2022/11/15 01:29:23;;;;;;;7.28;5.63;;;14.70;64.50;;;;;;5011228;28;20402;-71
2022/11/15 01:31:50;;;;;;;6.57;5.32;;;14.70;64.50;;;;;;5010621;28;20129;-71
2022/11/15 01:34:18;;;;;;;7.40;5.50;;;14.70;64.50;;;;;;5011550;28;20408;-71
2022/11/15 01:36:44;;;;;;;7.15;5.40;;;14.70;64.50;;;;;;5012015;28;20052;-71
2022/11/15 01:39:11;;;;;;;6.13;5.50;;;14.60;64.50;;;;;;5011062;28;20056;-71
2022/11/15 01:41:38;;;;;;;6.57;5.50;;;14.60;64.50;;;;;;5011276;28;20053;-71
2022/11/15 01:44:42;;;;;;;5.68;5.03;;;14.60;64.50;;;;;;5011719;28;20048;-71
2022/11/15 01:47:10;;;;;;;6.35;5.55;;;14.60;64.40;;;;;;4970966;28;20503;-71
2022/11/15 01:49:39;;;;;;;6.78;5.85;;;14.70;64.60;;;;;;5010807;28;20060;-71
2022/11/15 01:52:07;;;;;;;7.00;5.32;;;14.60;64.50;;;;;;5013822;28;20091;-71
2022/11/15 01:54:34;;;;;;;6.13;5.10;;;14.60;64.50;;;;;;5014639;28;20061;-71
2022/11/15 01:57:02;;;;;;;6.25;5.50;;;14.50;64.50;;;;;;5015100;28;20060;-71
2022/11/15 01:59:29;;;;;;;5.82;5.05;;;14.50;64.50;;;;;;5014655;28;20140;-71
2022/11/15 02:01:55;;;;;;;6.00;5.20;;;14.50;64.50;;;;;;5023751;28;20060;-71
2022/11/15 02:04:24;;;;;;;6.60;5.43;;;14.60;64.60;;;;;;5034207;28;20505;-71
2022/11/15 02:06:52;;;;;;;5.65;5.00;;;14.60;64.60;;;;;;5034514;28;20057;-71
2022/11/15 02:09:19;;;;;;;6.35;5.28;;;14.60;64.60;;;;;;5023926;28;20049;-71
2022/11/15 02:11:46;;;;;;;7.82;5.72;;;14.50;64.50;;;;;;5013374;28;20054;-71
2022/11/15 02:14:14;;;;;;;5.85;4.70;;;14.50;64.50;;;;;;5014515;28;20064;-71
2022/11/15 02:16:44;;;;;;;6.63;5.15;;;14.50;64.50;;;;;;5014415;28;20573;-71
2022/11/15 02:19:18;;;;;;;6.13;5.07;;;14.50;64.50;;;;;;5014497;28;20054;-71
2022/11/15 02:21:47;;;;;;;6.95;5.50;;;14.50;64.50;;;;;;5014526;28;20050;-71
2022/11/15 02:24:34;;;;;;;6.55;5.05;;;14.70;64.70;;;;;;5014295;28;20509;-71
2022/11/15 02:27:19;;;;;;;6.22;5.10;;;14.50;64.60;;;;;;5015081;28;20410;-71
2022/11/15 02:29:51;;;;;;;;;;;14.50;64.50;;;;;;5015764;28;20046;-71
2022/11/15 02:32:20;;;;;;;5.80;5.00;;;14.50;64.60;;;;;;5014618;28;19921;-71
2022/11/15 02:34:51;;;;;;;6.45;5.15;;;14.40;64.70;;;;;;5015174;28;20052;-71
2022/11/15 02:37:20;;;;;;;6.63;4.93;;;14.50;64.70;;;;;;5014060;28;20064;-71
2022/11/15 02:39:50;;;;;;;6.47;5.03;;;14.50;64.70;;;;;;5013874;28;20058;-71
2022/11/15 02:45:05;;;;;;;6.03;4.93;;;14.50;64.70;;;;;;5015046;28;20050;-71
2022/11/15 02:47:34;;;;;;;6.07;5.10;;;14.40;64.70;;;;;;5013809;28;20064;-71
2022/11/15 02:50:02;;;;;;;7.22;5.03;;;14.40;64.70;;;;;;5013059;28;20053;-71
2022/11/15 02:52:29;;;;;;;5.90;5.10;;;14.50;64.70;;;;;;5013639;28;20054;-71
2022/11/15 02:54:56;;;;;;;5.43;4.78;;;14.40;64.70;;;;;;5014946;28;20079;-71
2022/11/15 02:57:27;;;;;;;6.50;4.97;;;14.40;64.70;;;;;;5017309;28;20045;-71
2022/11/15 03:00:05;;;;;;;6.00;5.05;;;14.40;64.70;;;;;;5032856;28;20062;-71
2022/11/15 03:02:47;;;;;;;6.85;5.18;;;14.40;64.70;;;;;;5032975;28;20056;-71
2022/11/15 03:05:19;;;;;;;6.38;4.95;;;14.40;64.70;;;;;;5034368;28;20053;-71
2022/11/15 03:07:51;;;;;;;6.85;5.50;;;14.40;64.70;;;;;;5033304;28;20151;-71
2022/11/15 03:10:19;;;;;;;5.63;4.68;;;14.40;64.70;;;;;;5014062;28;20057;-71
2022/11/15 03:12:47;;;;;;;6.47;5.28;;;14.40;64.70;;;;;;5013225;28;20053;-71
2022/11/15 03:15:17;;;;;;;5.82;4.75;;;14.40;64.70;;;;;;5013430;28;20060;-71
2022/11/15 03:17:47;;;;;;;6.25;5.03;;;14.40;65.20;;;;;;5025626;28;20053;-71
2022/11/15 03:20:14;;;;;;;6.22;5.05;;;14.40;64.70;;;;;;5033064;28;20049;-71
2022/11/15 03:22:43;;;;;;;6.78;5.45;;;14.40;64.70;;;;;;5032968;28;20053;-71
2022/11/15 03:25:11;;;;;;;7.45;5.00;;;14.40;64.70;;;;;;5032927;28;20498;-71
2022/11/15 03:27:40;;;;;;;6.82;5.00;;;14.40;64.70;;;;;;5034283;28;20045;-71
2022/11/15 03:30:08;;;;;;;5.85;4.75;;;14.40;64.80;;;;;;5032283;28;20064;-71
2022/11/15 03:32:37;;;;;;;6.03;4.65;;;14.40;64.80;;;;;;5033534;28;20418;-71
2022/11/15 03:35:06;;;;;;;5.75;4.72;;;14.40;64.80;;;;;;5032459;28;20510;-71
2022/11/15 03:37:36;;;;;;;5.55;4.60;;;14.40;64.80;;;;;;5032538;28;20053;-71
2022/11/15 03:40:03;;;;;;;6.38;4.95;;;14.40;64.80;;;;;;5031877;28;20056;-71
2022/11/15 03:42:32;;;;;;;6.15;4.97;;;14.40;64.80;;;;;;5033476;28;20057;-71
2022/11/15 03:45:00;;;;;;;5.85;4.57;;;14.40;64.80;;;;;;5032355;28;20050;-71
2022/11/15 03:47:29;;;;;;;6.53;5.13;;;14.40;64.80;;;;;;5032061;28;20068;-71
2022/11/15 03:49:58;;;;;;;6.43;4.72;;;14.40;64.80;;;;;;5031840;28;20049;-71
2022/11/15 03:52:26;;;;;;;6.10;4.82;;;14.40;64.80;;;;;;5032453;28;20528;-71
2022/11/15 03:54:54;;;;;;;5.60;4.80;;;14.40;64.80;;;;;;5032363;28;20136;-71
2022/11/15 03:57:20;;;;;;;5.53;4.60;;;14.30;64.70;;;;;;5032373;28;20487;-72
2022/11/15 03:59:47;;;;;;;5.75;4.45;;;14.40;64.80;;;;;;5031920;28;20049;-71
2022/11/15 04:02:14;;;;;;;6.60;4.80;;;14.40;64.80;;;;;;5031598;28;20060;-71
2022/11/15 04:04:40;;;;;;;5.57;4.70;;;14.40;64.80;;;;;;5031932;28;20079;-71
2022/11/15 04:07:07;;;;;;;5.57;4.50;;;14.30;64.80;;;;;;5032268;28;20056;-71
2022/11/15 04:10:01;;;;;;;6.35;4.82;;;14.30;64.80;;;;;;5019939;28;20068;-71
2022/11/15 04:12:30;;;;;;;5.50;4.53;;;14.30;64.80;;;;;;5012069;28;20530;-71
2022/11/15 04:15:07;;;;;;;5.55;4.43;;;14.30;64.80;;;;;;5011334;28;20053;-72
2022/11/15 04:17:35;;;;;;;7.47;4.80;;;14.30;64.80;;;;;;5012075;28;20368;-71
2022/11/15 04:25:31;;;;;;;6.22;4.47;;;14.30;64.80;;;;;;5012020;28;20511;-72
2022/11/15 04:27:57;;;;;;;5.22;4.60;;;14.30;64.90;;;;;;5011458;28;20064;-72
2022/11/15 04:30:24;;;;;;;6.80;4.97;;;14.30;64.80;;;;;;5011549;28;20056;-71
2022/11/15 04:32:51;;;;;;;5.82;4.50;;;14.30;64.80;;;;;;5011903;28;20503;-71
2022/11/15 04:35:17;;;;;;;6.57;4.70;;;14.30;64.80;;;;;;5011928;28;20060;-71
2022/11/15 04:37:44;;;;;;;6.43;4.50;;;14.30;64.80;;;;;;5013105;28;20054;-71
2022/11/15 04:40:11;;;;;;;6.15;4.97;;;14.30;64.80;;;;;;5012162;28;20430;-71
2022/11/15 04:42:41;;;;;;;6.03;4.85;;;14.30;64.80;;;;;;5011352;28;20060;-71
2022/11/15 04:45:08;;;;;;;6.60;4.70;;;14.50;64.90;;;;;;5012703;28;20085;-72
2022/11/15 04:47:35;;;;;;;6.75;4.80;;;14.30;64.80;;;;;;5011769;28;20183;-71
2022/11/15 04:50:01;;;;;;;6.85;4.28;;;14.30;64.80;;;;;;5016018;28;20053;-71
2022/11/15 04:52:28;;;;;;;6.00;4.32;;;14.30;64.80;;;;;;5032276;28;20041;-71
2022/11/15 04:54:55;;;;;;;6.03;4.53;;;14.30;64.90;;;;;;5031329;28;20069;-71
2022/11/15 04:57:21;;;;;;;6.22;4.18;;;14.40;64.90;;;;;;5031294;28;20057;-71
2022/11/15 04:59:49;;;;;;;5.85;4.43;;;14.30;64.90;;;;;;5032762;28;20071;-71
2022/11/15 05:02:16;;;;;;;5.53;4.78;;;14.30;64.90;;;;;;5032018;28;20052;-71
2022/11/15 05:04:42;;;;;;;6.13;4.80;;;14.30;64.90;;;;;;5030997;28;20132;-71
2022/11/15 05:07:09;;;;;;;5.32;4.22;;;14.40;64.90;;;;;;5032152;28;20526;-71
2022/11/15 05:09:35;;;;;;;6.55;4.68;;;14.30;64.90;;;;;;5030458;28;20132;-71
2022/11/15 05:12:02;;;;;;;5.80;4.20;;;14.30;64.90;;;;;;5030992;28;20049;-71
2022/11/15 05:14:29;;;;;;;6.78;4.95;;;14.30;64.90;;;;;;5030858;28;20079;-71
2022/11/15 05:16:57;;;;;;;6.07;4.53;;;14.30;64.90;;;;;;5030908;28;20049;-71
2022/11/15 05:19:24;;;;;;;6.72;4.70;;;14.30;64.90;;;;;;5030952;28;20058;-71
2022/11/15 05:21:50;;;;;;;5.78;4.45;;;14.30;64.90;;;;;;5031590;28;20494;-71
2022/11/15 05:24:17;;;;;;;6.65;4.75;;;14.30;64.90;;;;;;5030836;28;20061;-71
2022/11/15 05:26:44;;;;;;;6.55;4.55;;;14.30;64.90;;;;;;5029695;28;20059;-71
2022/11/15 05:29:11;;;;;;;6.13;4.57;;;14.30;64.90;;;;;;5030790;28;20057;-70
2022/11/15 05:31:40;;;;;;;6.00;4.70;;;14.30;65.00;;;;;;5030273;28;20052;-70
2022/11/15 05:34:08;;;;;;;5.70;4.60;;;14.30;65.00;;;;;;5030692;28;20533;-70
2022/11/15 05:36:35;;;;;;;6.07;4.50;;;14.30;64.90;;;;;;5030322;28;20140;-70
2022/11/15 05:39:02;;;;;;;5.30;4.22;;;14.30;64.90;;;;;;5030763;28;20060;-70
2022/11/15 05:41:32;;;;;;;6.47;4.78;;;14.30;64.90;;;;;;5030087;28;20060;-70
2022/11/15 05:43:58;;;;;;;6.05;4.85;;;14.30;64.90;;;;;;5030675;28;20132;-71
2022/11/15 05:46:25;;;;;;;5.68;4.47;;;14.30;64.90;;;;;;5030216;28;20520;-70
2022/11/15 05:48:53;;;;;;;8.63;5.00;;;14.30;65.00;;;;;;5030639;28;20115;-70
2022/11/15 05:51:21;;;;;;;6.88;4.55;;;14.30;64.90;;;;;;5029721;28;20053;-70
2022/11/15 05:53:47;;;;;;;5.70;4.22;;;14.30;64.90;;;;;;5030588;28;20084;-70
2022/11/15 05:56:14;;;;;;;7.45;4.90;;;14.30;64.90;;;;;;5029977;28;20505;-70
2022/11/15 05:58:41;;;;;;;6.30;4.80;;;14.30;65.00;;;;;;5030178;28;20065;-70
2022/11/15 06:01:07;;;;;;;5.18;4.28;;;14.30;64.90;;;;;;5029780;28;20054;-70
2022/11/15 06:03:34;;;;;;;7.22;4.05;;;14.30;64.90;;;;;;5030498;28;20479;-71
2022/11/15 06:06:01;;;;;;;6.32;4.35;;;14.30;64.90;;;;;;5030101;28;20163;-71
2022/11/15 06:08:29;;;;;;;5.53;4.25;;;14.60;65.10;;;;;;5028835;28;20050;-71
2022/11/15 06:10:56;;;;;;;5.65;4.22;;;14.30;64.90;;;;;;5010475;28;20061;-71
2022/11/15 06:13:22;;;;;;;6.20;4.82;;;14.30;65.00;;;;;;5010715;28;20057;-71
2022/11/15 06:15:49;;;;;;;6.07;4.90;;;14.30;65.00;;;;;;5011442;28;20058;-71
2022/11/15 06:18:16;;;;;;;7.63;4.63;;;14.30;65.00;;;;;;5010686;28;20068;-71
2022/11/15 06:20:42;;;;;;;7.05;4.50;;;14.60;65.10;;;;;;5010296;28;20060;-71
2022/11/15 06:23:09;;;;;;;6.50;4.22;;;14.30;65.00;;;;;;5011464;28;20403;-71
2022/11/15 06:25:37;;;;;;;6.38;4.43;;;14.30;65.00;;;;;;5010355;28;20050;-71
2022/11/15 06:28:04;;;;;;;5.88;4.10;;;14.30;65.00;;;;;;5011626;28;20050;-71
2022/11/15 06:30:31;;;;;;;5.32;4.32;;;14.30;65.00;;;;;;5009914;28;20068;-71
2022/11/15 06:33:02;;;;;;;5.70;4.30;;;14.30;65.00;;;;;;5011579;28;20050;-71
2022/11/15 06:35:29;;;;;;;5.38;4.15;;;14.30;65.00;;;;;;5010449;28;20077;-71
2022/11/15 06:37:55;;;;;;;6.20;4.40;;;14.30;65.00;;;;;;5012428;28;20477;-71
2022/11/15 06:40:22;;;;;;;5.45;4.45;;;14.40;65.10;;;;;;5014974;28;20554;-71
2022/11/15 06:42:50;;;;;;;5.95;4.32;;;14.30;65.00;;;;;;5015074;28;20045;-71
2022/11/15 06:45:17;;;;;;;5.80;4.40;;;14.30;65.00;;;;;;5014744;28;20046;-70
2022/11/15 06:47:47;;;;;;;6.07;4.43;;;14.30;65.00;;;;;;5014925;28;20419;-70
2022/11/15 06:50:14;;;;;;;6.07;4.05;;;14.30;65.00;;;;;;5013487;28;20058;-70
2022/11/15 06:52:40;;;;;;;5.35;4.03;;;14.30;65.00;;;;;;5013867;28;20049;-71
2022/11/15 06:55:08;;;;;;;7.22;4.63;;;14.30;65.00;;;;;;5013342;28;20146;-72
2022/11/15 06:57:35;;;;;;;5.22;4.03;;;14.40;65.00;;;;;;5013429;28;20506;-71
2022/11/15 07:00:04;;;;;;;6.50;4.30;;;14.40;65.10;;;;;;5013271;28;20066;-71
2022/11/15 07:02:30;;;;;;;6.30;4.22;;;14.40;65.10;;;;;;5013212;28;20133;-71
2022/11/15 07:04:57;;;;;;;4.55;3.50;;;14.40;65.10;;;;;;5013686;28;20056;-71
2022/11/15 07:07:24;;;;;;;5.95;4.20;;;14.40;65.00;;;;;;5022186;28;20422;-71
2022/11/15 07:09:50;;;;;;;5.22;4.03;;;14.40;65.00;;;;;;5022482;28;20140;-71
2022/11/15 07:12:18;;;;;;;6.00;3.97;;;14.50;65.10;;;;;;5033480;28;20132;-72
2022/11/15 07:14:45;;;;;;;6.88;4.00;;;14.50;65.10;;;;;;5034601;28;20072;-71
2022/11/15 07:17:13;;;;;;;5.78;3.78;;;14.50;65.00;;;;;;5033843;28;20133;-71
2022/11/15 07:19:40;;;;;;;4.85;3.70;;;14.60;65.00;;;;;;5033285;28;20487;-71
2022/11/15 07:22:06;;;;;;;6.70;4.20;;;14.60;65.00;;;;;;5033715;28;20045;-71
2022/11/15 07:24:33;;;;;;;4.38;3.35;;;14.70;65.00;;;;;;5033973;28;20055;-72
2022/11/15 07:27:00;;;;;;;4.57;3.65;;;14.70;65.00;;;;;;5033717;28;20156;-71
2022/11/15 07:29:26;;;;;;;6.88;3.67;;;14.70;64.90;;;;;;5034081;28;20053;-72
2022/11/15 07:31:53;;;;;;;5.13;3.67;;;14.70;64.90;;;;;;5033780;28;20049;-72
2022/11/15 07:34:21;;;;;;;4.15;3.60;;;14.80;64.90;;;;;;5033941;28;20052;-72
2022/11/15 07:36:48;;;;;;;5.82;3.65;;;14.80;64.90;;;;;;5032623;28;20461;-72
2022/11/15 07:39:15;;;;;;;4.60;3.70;;;14.80;64.80;;;;;;5033424;28;20057;-72
2022/11/15 07:41:43;;;;;;;5.22;3.50;;;15.00;67.70;;;;;;5027421;28;20498;-72
2022/11/15 07:44:09;;;;;;;3.95;3.00;;;14.90;64.80;;;;;;5015152;28;20049;-72
2022/11/15 07:46:36;;;;;;;4.10;3.47;;;14.90;64.80;;;;;;5021484;28;20054;-72
2022/11/15 07:49:03;;;;;;;4.63;3.35;;;15.00;64.80;;;;;;5033077;28;20072;-72
2022/11/15 07:51:31;;;;;;;4.97;3.50;;;15.00;64.80;;;;;;5032235;28;20061;-72
2022/11/15 07:53:58;;;;;;;4.60;3.17;;;15.00;64.70;;;;;;5031870;28;20053;-72
2022/11/15 07:56:24;;;;;;;5.93;3.47;;;15.00;64.70;;;;;;5033496;28;20113;-72
2022/11/15 07:58:51;;;;;;;5.35;3.50;;;15.10;64.70;;;;;;5033544;28;20487;-72
2022/11/15 08:01:18;;;;;;;4.60;3.00;;;15.10;64.70;;;;;;5030863;28;20050;-72
2022/11/15 08:03:44;;;;;;;5.00;3.20;;;15.10;64.60;;;;;;5031782;28;20045;-72
2022/11/15 08:06:11;;;;;;;5.22;3.50;;;15.10;64.60;;;;;;5031754;28;20513;-73
2022/11/15 08:08:39;;;;;;;4.05;3.20;;;15.10;64.60;;;;;;5026286;28;20045;-72
2022/11/15 08:11:06;;;;;;;5.40;3.47;;;15.20;64.60;;;;;;5011170;28;20058;-72
2022/11/15 08:13:32;;;;;;;4.47;3.20;;;15.20;64.60;;;;;;5011981;28;20071;-71
2022/11/15 08:16:00;;;;;;;4.47;3.08;;;15.20;64.50;;;;;;5013360;28;20045;-72
2022/11/15 08:18:26;;;;;;;3.90;2.67;;;15.20;64.50;;;;;;5011797;28;20058;-71
2022/11/15 08:20:53;;;;;;;4.53;3.20;;;15.20;64.50;;;;;;5011407;28;20179;-72
2022/11/15 08:23:20;;;;;;;4.30;3.17;;;15.30;64.50;;;;;;5010892;28;20065;-71
2022/11/15 08:25:48;;;;;;;3.78;2.97;;;15.30;64.40;;;;;;5012988;28;20464;-71
2022/11/15 08:28:16;;;;;;;4.40;3.08;;;15.30;64.40;;;;;;5011740;28;20053;-71
2022/11/15 08:30:45;;;;;;;3.78;3.00;;;15.30;64.40;;;;;;5011451;28;20364;-71
2022/11/15 08:33:12;;;;;;;4.55;3.10;;;15.30;64.40;;;;;;5011304;28;20112;-72
2022/11/15 08:35:40;;;;;;;4.30;3.15;;;15.40;64.40;;;;;;5011623;28;20470;-72
2022/11/15 08:38:06;;;;;;;3.70;3.00;;;15.40;64.90;;;;;;5009743;28;20068;-72
2022/11/15 08:40:33;;;;;;;4.93;2.92;;;13.70;63.50;;;;;;5010584;28;20554;-72
2022/11/15 08:43:02;;;;;;;3.60;2.70;;;15.40;64.30;;;;;;5010535;28;20384;-70
2022/11/15 08:45:29;;;;;;;3.25;2.90;;;15.40;64.30;;;;;;5010919;28;20066;-72
2022/11/15 08:47:55;;;;;;;3.50;2.90;;;15.40;64.30;;;;;;5011578;28;20057;-72
2022/11/15 08:50:22;;;;;;;3.72;3.00;;;15.50;64.30;;;;;;5010830;28;20498;-72
2022/11/15 08:52:49;;;;;;;3.83;3.00;;;15.50;64.30;;;;;;5011256;28;20073;-71
2022/11/15 08:55:16;;;;;;;5.00;3.00;;;15.50;64.30;;;;;;5011531;28;20061;-71
2022/11/15 08:57:42;;;;;;;3.90;2.85;;;15.50;64.30;;;;;;5011710;28;20064;-71
2022/11/15 09:00:12;;;;;;;4.30;3.03;;;15.50;64.20;;;;;;5010807;28;20054;-71
2022/11/15 09:02:38;;;;;;;4.15;3.13;;;15.50;64.20;;;;;;5011365;28;20050;-70
2022/11/15 09:05:06;;;;;;;3.95;3.03;;;15.60;64.20;;;;;;5012822;28;20052;-71
2022/11/15 09:07:33;;;;;;;4.55;2.95;;;15.60;64.20;;;;;;5012427;28;20402;-71
2022/11/15 09:10:00;;;;;;;4.30;2.70;;;15.60;64.20;;;;;;5010269;28;20144;-71
2022/11/15 09:12:27;;;;;;;3.50;2.70;;;15.60;64.20;;;;;;5011226;28;20144;-71
2022/11/15 09:14:53;;;;;;;4.03;2.95;;;15.60;64.20;;;;;;5011024;28;20058;-71
2022/11/15 09:17:21;;;;;;;3.60;2.65;;;15.60;64.10;;;;;;5012112;28;20068;-70
2022/11/15 09:19:48;;;;;;;3.63;2.70;;;15.60;64.10;;;;;;5011461;28;20141;-70
2022/11/15 09:22:15;;;;;;;3.25;2.70;;;15.60;64.10;;;;;;5010326;28;20146;-70
2022/11/15 09:24:43;;;;;;;3.08;2.53;;;15.70;64.10;;;;;;5010872;28;20058;-70
2022/11/15 09:27:10;;;;;;;4.03;2.90;;;15.70;64.10;;;;;;5012316;28;20049;-70
2022/11/15 09:29:37;;;;;;;3.95;3.00;;;15.60;64.00;;;;;;4994913;28;20053;-71
2022/11/15 09:32:03;;;;;;;2.83;2.40;;;15.70;64.10;;;;;;5009851;28;20065;-72
2022/11/15 09:34:34;;;;;;;3.95;2.75;;;15.70;64.10;;;;;;5011743;28;20061;-71
2022/11/15 09:37:01;;;;;;;3.58;2.75;;;15.70;64.10;;;;;;5030817;28;20053;-72
2022/11/15 09:39:27;;;;;;;3.33;2.70;;;15.70;64.10;;;;;;5030767;28;20067;-71
2022/11/15 09:42:11;;;;;;;2.90;2.60;;;15.70;64.10;;;;;;5013279;28;20061;-71
2022/11/15 09:44:49;;;;;;;4.07;2.72;;;15.70;64.10;;;;;;5030552;28;20314;-71
2022/11/15 09:47:38;;;;;;;3.28;2.60;;;15.70;64.10;;;;;;5031723;28;20045;-71
2022/11/15 09:50:11;;;;;;;4.60;3.03;;;15.70;64.20;;;;;;5031531;28;20056;-71
2022/11/15 09:52:38;;;;;;;3.80;3.08;;;15.60;64.30;;;;;;5030285;28;20071;-71
2022/11/15 09:55:05;;;;;;;3.65;2.67;;;15.60;64.30;;;;;;5026158;28;20053;-71
2022/11/15 09:57:33;;;;;;;3.25;2.60;;;15.70;64.40;;;;;;5010816;28;20058;-71
2022/11/15 10:00:08;;;;;;;3.55;3.08;;;15.60;64.40;;;;;;5011709;28;20050;-71
2022/11/15 10:02:42;;;;;;;3.75;2.72;;;15.60;64.40;;;;;;5010668;28;20073;-70
2022/11/15 10:05:12;;;;;;;3.45;2.78;;;15.60;64.40;;;;;;5010862;28;20065;-71
2022/11/15 10:07:45;;;;;;;4.22;3.20;;;15.60;64.50;;;;;;5010774;28;20054;-71
2022/11/15 10:10:14;;;;;;;3.47;3.00;;;15.60;64.50;;;;;;5028199;28;20395;-71
2022/11/15 10:12:41;;;;;;;3.75;2.70;;;15.50;64.50;;;;;;5032406;28;20048;-71
2022/11/15 10:15:15;;;;;;;4.05;3.08;;;15.50;64.50;;;;;;5035398;28;20521;-72
2022/11/15 10:17:56;;;;;;;3.40;2.80;;;15.50;64.50;;;;;;5035455;28;20129;-71
2022/11/15 10:20:26;;;;;;;3.67;2.72;;;15.50;64.60;;;;;;5033931;28;20499;-72
2022/11/15 10:22:54;;;;;;;3.63;3.00;;;15.50;64.60;;;;;;5035100;28;20173;-71
2022/11/15 10:25:23;;;;;;;4.65;2.80;;;15.50;64.60;;;;;;5030316;28;20053;-72
2022/11/15 10:27:58;;;;;;;6.00;3.00;;;15.50;64.60;;;;;;5022724;28;20172;-71
2022/11/15 10:30:31;;;;;;;5.40;3.20;;;15.50;64.60;;;;;;5022975;28;20046;-71
2022/11/15 10:32:57;;;;;;;4.47;3.10;;;15.20;67.30;;;;;;5020006;28;20057;-71
2022/11/15 10:35:26;;;;;;;4.65;2.85;;;15.50;64.70;;;;;;5025353;28;20064;-72
2022/11/15 10:37:57;;;;;;;4.00;2.72;;;15.50;64.70;;;;;;5024576;28;20057;-71
2022/11/15 10:40:24;;;;;;;3.95;3.00;;;15.50;64.70;;;;;;5026004;28;20075;-71
2022/11/15 10:43:05;;;;;;;4.20;2.90;;;15.50;64.70;;;;;;5039454;28;20064;-71
2022/11/15 10:45:33;;;;;;;4.70;2.80;;;15.50;64.70;;;;;;5018541;28;20060;-71
2022/11/15 10:48:23;;;;;;;3.17;2.88;;;15.40;64.70;;;;;;5040520;28;20058;-71
2022/11/15 10:50:52;;;;;;;3.90;2.92;;;15.40;64.60;;;;;;5021056;28;20068;-71
2022/11/15 10:53:27;;;;;;;3.20;2.78;;;15.40;64.70;;;;;;5022951;28;20084;-72
2022/11/15 10:55:54;;;;;;;;;;;15.40;64.70;;;;;;5025674;28;20095;-71
2022/11/15 10:58:22;;;;;;;3.33;2.67;;;15.40;64.70;;;;;;5027048;28;20400;-71
2022/11/15 11:00:50;;;;;;;3.90;3.10;;;15.40;64.90;;;;;;5024021;28;20050;-71
2022/11/15 11:03:39;;;;;;;3.83;2.88;;;15.40;64.80;;;;;;5039233;28;20046;-71
2022/11/15 11:06:10;;;;;;;5.95;2.88;;;15.40;64.70;;;;;;5019173;28;20050;-71
2022/11/15 11:08:37;;;;;;;3.55;2.70;;;15.40;64.80;;;;;;5020174;28;20046;-71
2022/11/15 11:11:04;;;;;;;3.05;2.58;;;15.40;64.80;;;;;;5020917;28;20520;-71
2022/11/15 11:13:32;;;;;;;3.83;2.95;;;15.40;64.80;;;;;;5022518;28;20041;-71
2022/11/15 11:16:07;;;;;;;4.03;2.70;;;15.40;64.90;;;;;;5021578;28;20045;-71
2022/11/15 11:18:35;;;;;;;3.33;2.80;;;15.40;64.80;;;;;;5024392;28;20054;-72
2022/11/15 11:21:04;;;;;;;2.90;2.58;;;15.40;65.30;;;;;;5022007;28;20050;-72
2022/11/15 11:23:39;;;;;;;3.13;2.65;;;15.30;64.70;;;;;;5021327;28;20427;-71
2022/11/15 11:26:15;;;;;;;3.45;2.65;;;15.40;64.80;;;;;;5019729;28;20050;-71
2022/11/15 11:28:45;;;;;;;2.92;2.63;;;15.40;64.80;;;;;;5018229;28;20058;-72
2022/11/15 11:31:19;;;;;;;2.90;2.58;;;15.40;64.80;;;;;;5012303;28;20049;-71
2022/11/15 11:33:50;;;;;;;3.35;2.88;;;15.40;64.80;;;;;;5013796;28;20049;-71
2022/11/15 11:36:22;;;;;;;3.05;2.75;;;15.40;64.80;;;;;;5013202;28;20057;-72
2022/11/15 11:38:57;;;;;;;3.00;2.70;;;15.40;64.80;;;;;;5013071;28;20607;-72
2022/11/15 11:41:44;;;;;;;3.25;2.53;;;15.40;64.80;;;;;;5012416;28;20057;-71
2022/11/15 11:44:24;;;;;;;2.88;2.40;;;15.40;64.80;;;;;;5012477;28;20057;-72
2022/11/15 11:46:55;;;;;;;5.05;2.70;;;15.40;64.90;;;;;;5012736;28;20061;-71
2022/11/15 11:49:25;;;;;;;3.40;2.67;;;15.40;64.90;;;;;;5012963;28;20060;-71
2022/11/15 11:51:54;;;;;;;3.38;2.80;;;15.40;64.90;;;;;;5014278;28;20062;-71
2022/11/15 11:54:25;;;;;;;3.33;2.63;;;15.40;64.70;;;;;;5012406;28;20075;-71
2022/11/15 11:56:52;;;;;;;2.58;2.38;;;15.40;64.60;;;;;;5012746;28;20132;-71
2022/11/15 11:59:22;;;;;;;3.90;2.35;;;15.40;64.60;;;;;;5012469;28;20057;-71
2022/11/15 12:01:49;;;;;;;4.43;2.80;;;15.40;64.40;;;;;;5012158;28;20053;-71
2022/11/15 12:04:17;;;;;;;3.20;2.42;;;15.40;64.30;;;;;;5012015;28;20054;-71
2022/11/15 12:06:48;;;;;;;3.95;2.47;;;15.50;64.20;;;;;;5015450;28;20053;-71
2022/11/15 12:09:16;;;;;;;3.70;2.80;;;15.50;64.10;;;;;;5022853;28;20054;-71
2022/11/15 12:11:51;;;;;;;3.38;2.40;;;15.50;64.00;;;;;;5011796;28;20100;-71
2022/11/15 12:14:28;;;;;;;2.83;2.50;;;15.50;63.80;;;;;;5011838;28;20133;-71
2022/11/15 12:16:55;;;;;;;5.55;2.90;;;15.50;63.80;;;;;;5012410;28;20062;-71
2022/11/15 12:19:21;;;;;;;3.25;2.38;;;15.50;63.70;;;;;;5013206;28;20085;-71
2022/11/15 12:21:50;;;;;;;7.28;2.65;;;15.50;63.70;;;;;;5011805;28;20502;-72
2022/11/15 12:24:19;;;;;;;4.47;2.35;;;15.50;63.60;;;;;;5020666;28;20056;-73
2022/11/15 12:26:51;;;;;;;5.10;2.42;;;15.50;63.50;;;;;;5032109;28;20525;-71
2022/11/15 12:29:20;;;;;;;4.97;2.63;;;15.50;63.60;;;;;;5031509;28;20064;-71
2022/11/15 12:31:50;;;;;;;3.53;2.38;;;15.50;63.70;;;;;;5031563;28;20049;-71
2022/11/15 12:34:41;;;;;;;5.47;2.95;;;15.50;63.90;;;;;;5014792;28;20462;-71
2022/11/15 12:37:33;;;;;;;3.03;2.55;;;15.50;63.90;;;;;;5026013;28;20049;-71
2022/11/15 12:40:27;;;;;;;4.10;2.45;;;15.50;63.90;;;;;;5038052;28;20059;-71
2022/11/15 12:43:27;;;;;;;3.17;2.25;;;15.50;63.80;;;;;;5022887;28;20093;-71
2022/11/15 12:45:53;;;;;;;2.72;2.10;;;15.50;63.70;;;;;;5022599;28;20042;-71
2022/11/15 12:48:57;;;;;;;2.72;2.35;;;15.50;63.70;;;;;;5020255;28;20060;-71
2022/11/15 12:51:43;;;;;;;2.42;2.20;;;15.50;63.50;;;;;;5020420;28;20049;-71
2022/11/15 12:54:47;;;;;;;2.83;2.10;;;15.50;63.40;;;;;;5020139;28;20052;-71
2022/11/15 12:57:38;;;;;;;2.63;2.28;;;15.50;63.20;;;;;;5022676;28;20509;-71
2022/11/15 13:00:40;;;;;;;3.45;2.00;;;15.50;63.10;;;;;;5022554;28;20479;-71
2022/11/15 13:03:26;;;;;;;2.58;2.10;;;15.60;63.10;;;;;;5011192;28;20049;-71
2022/11/15 13:06:04;;;;;;;2.70;2.22;;;15.60;63.00;;;;;;5011482;28;20053;-71
2022/11/15 13:08:43;;;;;;;3.15;2.00;;;15.60;63.00;;;;;;5025591;28;20136;-71